createdAt,value
2023-01-29T00:02:24.891Z,99327.19
2023-01-29T00:04:53.740Z,99325.56
2023-01-29T00:07:26.878Z,99334.13
2023-01-29T00:09:55.498Z,99341.91
2023-01-29T00:12:23.659Z,99340.81
2023-01-29T00:14:53.143Z,99337.91
2023-01-29T00:17:21.468Z,99346.19
2023-01-29T00:19:49.593Z,99345.69
2023-01-29T00:22:17.675Z,99337.41
2023-01-29T00:24:47.069Z,99343.28
2023-01-29T00:27:15.584Z,99346.22
2023-01-29T00:29:43.795Z,99343.06
2023-01-29T00:32:12.037Z,99340.41
2023-01-29T00:34:40.219Z,99343.59
2023-01-29T00:37:09.012Z,99348.94
2023-01-29T00:39:47.866Z,99345.75
2023-01-29T00:42:35.234Z,99352.41
2023-01-29T00:45:03.356Z,99347.81
2023-01-29T00:47:34.616Z,99358.47
2023-01-29T00:50:03.252Z,99340.06
2023-01-29T00:52:31.727Z,99347.00
2023-01-29T00:55:01.483Z,99348.88
2023-01-29T00:57:33.061Z,99345.41
2023-01-29T01:00:01.164Z,99347.00
2023-01-29T01:02:47.246Z,99349.66
2023-01-29T01:05:19.025Z,99351.25
2023-01-29T01:07:48.261Z,99358.75
2023-01-29T01:10:24.278Z,99372.66
2023-01-29T01:12:58.070Z,99367.31
2023-01-29T01:15:28.269Z,99371.31
2023-01-29T01:17:58.315Z,99370.00
2023-01-29T01:20:28.629Z,99376.44
2023-01-29T01:22:57.057Z,99371.91
2023-01-29T01:25:26.496Z,99371.09
2023-01-29T01:27:57.268Z,99362.03
2023-01-29T01:30:25.949Z,99360.41
2023-01-29T01:32:54.359Z,99367.38
2023-01-29T01:35:22.498Z,99370.28
2023-01-29T01:37:50.688Z,99362.28
2023-01-29T01:40:20.085Z,99367.91
2023-01-29T01:42:50.296Z,99363.06
2023-01-29T01:45:26.825Z,99365.72
2023-01-29T01:48:00.815Z,99349.94
2023-01-29T01:50:32.631Z,99355.25
2023-01-29T01:53:04.323Z,99356.59
2023-01-29T01:55:37.211Z,99354.41
2023-01-29T01:58:10.114Z,99356.56
2023-01-29T02:00:41.015Z,99363.25
2023-01-29T02:03:29.240Z,99352.56
2023-01-29T02:06:17.613Z,99361.94
2023-01-29T02:09:11.685Z,99357.63
2023-01-29T02:11:39.943Z,99359.78
2023-01-29T02:14:08.442Z,99357.66
2023-01-29T02:16:38.420Z,99360.88
2023-01-29T02:19:12.491Z,99353.41
2023-01-29T02:22:06.546Z,99355.03
2023-01-29T02:24:57.188Z,99360.66
2023-01-29T02:27:34.985Z,99367.34
2023-01-29T02:30:09.258Z,99377.25
2023-01-29T02:32:54.291Z,99380.44
2023-01-29T02:35:32.131Z,99370.31
2023-01-29T02:38:12.962Z,99378.59
2023-01-29T02:40:46.860Z,99374.59
2023-01-29T02:43:26.992Z,99374.28
2023-01-29T02:46:03.993Z,99367.91
2023-01-29T02:48:42.796Z,99366.03
2023-01-29T02:51:16.618Z,99367.91
2023-01-29T02:53:54.669Z,99373.50
2023-01-29T02:56:30.183Z,99369.75
2023-01-29T02:59:03.210Z,99379.13
2023-01-29T03:01:37.844Z,99375.94
2023-01-29T03:04:13.169Z,99367.38
2023-01-29T03:06:45.306Z,99378.59
2023-01-29T03:09:21.003Z,99373.78
2023-01-29T03:11:54.048Z,99371.91
2023-01-29T03:14:26.544Z,99379.13
2023-01-29T03:16:56.423Z,99372.44
2023-01-29T03:19:32.136Z,99375.38
2023-01-29T03:22:04.320Z,99370.03
2023-01-29T03:24:58.624Z,99373.75
2023-01-29T03:27:48.120Z,99376.69
2023-01-29T03:30:36.401Z,99373.22
2023-01-29T03:33:09.221Z,99377.78
2023-01-29T03:35:41.640Z,99371.59
2023-01-29T03:38:12.646Z,99379.09
2023-01-29T03:40:48.885Z,99383.31
2023-01-29T03:43:27.921Z,99378.25
2023-01-29T03:46:03.817Z,99376.91
2023-01-29T03:48:37.924Z,99375.00
2023-01-29T03:51:16.152Z,99374.97
2023-01-29T03:53:49.893Z,99377.34
2023-01-29T03:56:28.847Z,99376.78
2023-01-29T03:59:01.921Z,99381.59
2023-01-29T04:01:34.799Z,99379.19
2023-01-29T04:04:10.224Z,99379.44
2023-01-29T04:06:42.504Z,99379.97
2023-01-29T04:09:16.625Z,99378.09
2023-01-29T04:11:49.069Z,99386.44
2023-01-29T04:14:18.842Z,99385.59
2023-01-29T04:16:51.121Z,99386.16
2023-01-29T04:19:20.869Z,99386.44
2023-01-29T04:21:52.044Z,99386.66
2023-01-29T04:24:20.364Z,99384.00
2023-01-29T04:26:59.335Z,99386.66
2023-01-29T04:29:41.552Z,99387.75
2023-01-29T04:32:16.893Z,99377.88
2023-01-29T04:35:00.192Z,99389.34
2023-01-29T04:37:37.714Z,99383.19
2023-01-29T04:40:16.836Z,99387.47
2023-01-29T04:42:53.422Z,99391.75
2023-01-29T04:45:29.082Z,99390.69
2023-01-29T04:48:08.054Z,99388.03
2023-01-29T04:50:41.431Z,99391.25
2023-01-29T04:53:16.650Z,99400.09
2023-01-29T04:55:50.885Z,99398.25
2023-01-29T04:58:27.846Z,99407.09
2023-01-29T05:00:56.515Z,99404.75
2023-01-29T05:03:28.548Z,99402.91
2023-01-29T05:06:01.569Z,99405.34
2023-01-29T05:08:31.861Z,99412.59
2023-01-29T05:11:01.398Z,99410.75
2023-01-29T05:13:32.952Z,99412.09
2023-01-29T05:16:05.580Z,99411.25
2023-01-29T05:18:33.906Z,99408.06
2023-01-29T05:21:07.728Z,99413.41
2023-01-29T05:23:35.920Z,99413.44
2023-01-29T05:26:04.090Z,99413.16
2023-01-29T05:28:31.359Z,99410.25
2023-01-29T05:30:59.626Z,99422.81
2023-01-29T05:33:29.470Z,99422.59
2023-01-29T05:35:59.627Z,99429.81
2023-01-29T05:38:29.408Z,99431.69
2023-01-29T05:41:00.008Z,99418.78
2023-01-29T05:43:28.139Z,99423.59
2023-01-29T05:45:57.371Z,99421.41
2023-01-29T05:48:26.070Z,99421.34
2023-01-29T05:50:54.162Z,99421.34
2023-01-29T05:53:22.413Z,99423.50
2023-01-29T05:55:51.858Z,99422.44
2023-01-29T05:58:20.070Z,99434.16
2023-01-29T06:00:48.181Z,99441.84
2023-01-29T06:03:16.394Z,99447.38
2023-01-29T06:05:44.577Z,99449.00
2023-01-29T06:08:13.331Z,99447.41
2023-01-29T06:10:41.453Z,99456.50
2023-01-29T06:13:10.918Z,99455.97
2023-01-29T06:15:40.979Z,99465.56
2023-01-29T06:18:09.132Z,99461.84
2023-01-29T06:20:37.940Z,99478.09
2023-01-29T06:23:05.940Z,99483.94
2023-01-29T06:25:34.115Z,99490.50
2023-01-29T06:28:02.364Z,99494.19
2023-01-29T06:30:32.069Z,99496.00
2023-01-29T06:33:01.706Z,99501.22
2023-01-29T06:35:29.994Z,99502.75
2023-01-29T06:37:58.176Z,99500.31
2023-01-29T06:40:26.343Z,99511.84
2023-01-29T06:42:54.431Z,99503.34
2023-01-29T06:45:22.474Z,99506.88
2023-01-29T06:47:51.917Z,99504.25
2023-01-29T06:50:20.073Z,99510.09
2023-01-29T06:52:48.123Z,99502.13
2023-01-29T06:55:16.172Z,99501.06
2023-01-29T06:57:44.208Z,99510.19
2023-01-29T07:00:13.514Z,99497.91
2023-01-29T07:02:41.593Z,99497.66
2023-01-29T07:05:11.176Z,99505.22
2023-01-29T07:07:39.334Z,99501.03
2023-01-29T07:10:08.481Z,99496.53
2023-01-29T07:12:36.582Z,99499.78
2023-01-29T07:15:05.059Z,99498.22
2023-01-29T07:17:33.130Z,99498.50
2023-01-29T07:20:01.287Z,99506.25
2023-01-29T07:22:30.782Z,99508.13
2023-01-29T07:24:59.060Z,99504.41
2023-01-29T07:27:27.165Z,99512.94
2023-01-29T07:29:55.221Z,99517.44
2023-01-29T07:32:23.521Z,99517.44
2023-01-29T07:34:51.642Z,99516.13
2023-01-29T07:37:19.627Z,99515.09
2023-01-29T07:39:49.077Z,99517.06
2023-01-29T07:42:17.075Z,99511.50
2023-01-29T07:44:48.190Z,99505.91
2023-01-29T07:47:17.244Z,99515.09
2023-01-29T07:49:45.542Z,99521.22
2023-01-29T07:52:13.827Z,99510.50
2023-01-29T07:54:42.038Z,99511.06
2023-01-29T07:57:11.489Z,99511.34
2023-01-29T07:59:39.634Z,99509.22
2023-01-29T08:02:08.174Z,99504.63
2023-01-29T08:04:36.326Z,99506.00
2023-01-29T08:07:04.980Z,99508.66
2023-01-29T08:09:33.137Z,99506.78
2023-01-29T08:12:01.267Z,99508.91
2023-01-29T08:14:30.679Z,99509.94
2023-01-29T08:16:58.849Z,99513.97
2023-01-29T08:19:26.949Z,99508.38
2023-01-29T08:21:55.104Z,99511.41
2023-01-29T08:24:28.211Z,99510.06
2023-01-29T08:27:05.065Z,99515.97
2023-01-29T08:29:34.622Z,99509.31
2023-01-29T08:32:03.005Z,99507.72
2023-01-29T08:34:31.112Z,99505.03
2023-01-29T08:36:59.320Z,99509.59
2023-01-29T08:39:27.370Z,99506.16
2023-01-29T08:41:55.540Z,99513.38
2023-01-29T08:44:23.637Z,99505.63
2023-01-29T08:46:53.077Z,99521.66
2023-01-29T08:49:21.062Z,99515.53
2023-01-29T08:51:49.122Z,99517.44
2023-01-29T08:54:17.378Z,99527.03
2023-01-29T08:56:45.880Z,99524.91
2023-01-29T08:59:14.150Z,99522.50
2023-01-29T09:01:42.356Z,99524.38
2023-01-29T09:04:11.885Z,99526.00
2023-01-29T09:06:40.014Z,99535.06
2023-01-29T09:09:08.330Z,99536.91
2023-01-29T09:11:36.508Z,99541.72
2023-01-29T09:14:04.662Z,99543.31
2023-01-29T09:16:32.856Z,99546.75
2023-01-29T09:19:00.937Z,99545.94
2023-01-29T09:21:30.375Z,99545.38
2023-01-29T09:23:58.488Z,99534.16
2023-01-29T09:26:26.581Z,99531.75
2023-01-29T09:28:54.734Z,99526.16
2023-01-29T09:31:23.044Z,99525.91
2023-01-29T09:33:51.322Z,99521.38
2023-01-29T09:36:19.485Z,99521.66
2023-01-29T09:38:48.906Z,99517.38
2023-01-29T09:41:37.115Z,99513.16
2023-01-29T09:44:12.632Z,99507.28
2023-01-29T09:46:43.111Z,99505.97
2023-01-29T09:49:17.818Z,99507.84
2023-01-29T09:51:50.163Z,99512.16
2023-01-29T09:54:24.403Z,99513.75
2023-01-29T09:56:56.663Z,99514.56
2023-01-29T09:59:26.654Z,99521.25
2023-01-29T10:02:05.014Z,99507.88
2023-01-29T10:05:00.547Z,99514.03
2023-01-29T10:07:46.318Z,99511.06
2023-01-29T10:10:28.912Z,99513.22
2023-01-29T10:13:06.804Z,99503.59
2023-01-29T10:15:43.575Z,99502.53
2023-01-29T10:18:32.079Z,99507.91
2023-01-29T10:21:13.485Z,99499.59
2023-01-29T10:23:45.133Z,99486.50
2023-01-29T10:26:14.962Z,99495.06
2023-01-29T10:28:46.515Z,99500.94
2023-01-29T10:31:19.810Z,99504.44
2023-01-29T10:34:02.137Z,99507.09
2023-01-29T10:36:37.672Z,99498.56
2023-01-29T10:39:07.126Z,99500.94
2023-01-29T10:41:56.189Z,99493.16
2023-01-29T10:44:34.447Z,99493.16
2023-01-29T10:47:19.604Z,99487.28
2023-01-29T10:50:00.538Z,99481.34
2023-01-29T10:52:41.254Z,99480.00
2023-01-29T10:55:25.665Z,99482.41
2023-01-29T10:58:06.116Z,99482.16
2023-01-29T11:00:37.650Z,99489.59
2023-01-29T11:03:26.832Z,99479.16
2023-01-29T11:06:04.046Z,99482.09
2023-01-29T11:08:38.183Z,99478.63
2023-01-29T11:11:10.556Z,99476.75
2023-01-29T11:13:44.753Z,99467.41
2023-01-29T11:16:12.869Z,99465.03
2023-01-29T11:18:55.635Z,99466.09
2023-01-29T11:21:24.575Z,99461.81
2023-01-29T11:24:06.031Z,99459.16
2023-01-29T11:26:39.365Z,99474.13
2023-01-29T11:29:32.160Z,99472.56
2023-01-29T11:32:01.525Z,99466.13
2023-01-29T11:34:29.720Z,99462.41
2023-01-29T11:37:00.275Z,99461.59
2023-01-29T11:39:30.342Z,99460.53
2023-01-29T11:42:00.462Z,99463.47
2023-01-29T11:44:32.938Z,99465.34
2023-01-29T11:47:18.734Z,99477.66
2023-01-29T11:49:49.631Z,99471.22
2023-01-29T11:52:20.340Z,99476.31
2023-01-29T11:54:54.221Z,99476.56
2023-01-29T11:57:29.302Z,99479.78
2023-01-29T12:00:01.883Z,99477.34
2023-01-29T12:02:37.313Z,99476.81
2023-01-29T12:05:16.450Z,99484.00
2023-01-29T12:07:46.560Z,99485.59
2023-01-29T12:10:31.931Z,99489.28
2023-01-29T12:13:05.792Z,99486.88
2023-01-29T12:15:35.390Z,99493.00
2023-01-29T12:18:14.082Z,99496.50
2023-01-29T12:20:46.249Z,99498.38
2023-01-29T12:23:28.543Z,99501.59
2023-01-29T12:26:02.979Z,99490.38
2023-01-29T12:28:43.853Z,99487.44
2023-01-29T12:31:30.758Z,99484.78
2023-01-29T12:34:06.665Z,99486.34
2023-01-29T12:36:39.942Z,99492.50
2023-01-29T12:39:10.109Z,99488.19
2023-01-29T12:41:46.103Z,99490.06
2023-01-29T12:44:18.237Z,99486.31
2023-01-29T12:46:53.768Z,99481.53
2023-01-29T12:49:26.106Z,99479.41
2023-01-29T12:51:59.205Z,99482.88
2023-01-29T12:54:36.190Z,99480.47
2023-01-29T12:57:09.830Z,99488.50
2023-01-29T12:59:43.190Z,99485.28
2023-01-29T13:02:25.732Z,99483.72
2023-01-29T13:05:00.528Z,99484.25
2023-01-29T13:07:33.405Z,99475.97
2023-01-29T13:10:13.845Z,99479.44
2023-01-29T13:12:52.730Z,99469.28
2023-01-29T13:15:26.113Z,99475.19
2023-01-29T13:18:00.480Z,99471.97
2023-01-29T13:20:31.341Z,99472.78
2023-01-29T13:23:05.896Z,99465.56
2023-01-29T13:25:34.028Z,99461.31
2023-01-29T13:28:02.186Z,99455.13
2023-01-29T13:30:32.224Z,99460.22
2023-01-29T13:33:10.485Z,99446.56
2023-01-29T13:35:43.848Z,99452.75
2023-01-29T13:38:26.141Z,99454.59
2023-01-29T13:40:58.258Z,99455.94
2023-01-29T13:43:26.463Z,99463.16
2023-01-29T13:45:55.905Z,99466.38
2023-01-29T13:48:28.601Z,99463.44
2023-01-29T13:50:58.557Z,99460.75
2023-01-29T13:53:29.235Z,99464.47
2023-01-29T13:56:30.617Z,99465.00
2023-01-29T13:58:58.919Z,99461.00
2023-01-29T14:02:04.606Z,99470.34
2023-01-29T14:04:34.266Z,99469.31
2023-01-29T14:07:04.288Z,99470.88
2023-01-29T14:09:51.486Z,99466.06
2023-01-29T14:12:46.679Z,99469.56
2023-01-29T14:15:41.614Z,99474.88
2023-01-29T14:18:28.609Z,99482.88
2023-01-29T14:21:06.369Z,99473.78
2023-01-29T14:23:48.165Z,99478.81
2023-01-29T14:26:31.034Z,99473.47
2023-01-29T14:29:03.706Z,99470.78
2023-01-29T14:31:38.819Z,99476.13
2023-01-29T14:34:14.752Z,99476.13
2023-01-29T14:36:46.593Z,99477.19
2023-01-29T14:39:24.671Z,99476.66
2023-01-29T14:41:53.923Z,99480.09
2023-01-29T14:44:59.205Z,99481.38
2023-01-29T14:47:56.631Z,99476.00
2023-01-29T14:50:48.245Z,99481.63
2023-01-29T14:53:23.247Z,99484.56
2023-01-29T14:55:54.175Z,99478.69
2023-01-29T14:58:29.384Z,99484.34
2023-01-29T15:00:59.925Z,99488.38
2023-01-29T15:03:41.269Z,99491.56
2023-01-29T15:06:16.712Z,99493.97
2023-01-29T15:08:52.359Z,99499.56
2023-01-29T15:11:40.040Z,99493.72
2023-01-29T15:14:24.051Z,99496.91
2023-01-29T15:17:08.864Z,99490.72
2023-01-29T15:19:40.457Z,99492.56
2023-01-29T15:22:13.235Z,99499.50
2023-01-29T15:24:44.553Z,99497.06
2023-01-29T15:27:16.540Z,99498.94
2023-01-29T15:29:49.280Z,99497.38
2023-01-29T15:32:29.720Z,99498.75
2023-01-29T15:35:00.430Z,99493.41
2023-01-29T15:37:31.482Z,99494.19
2023-01-29T15:40:02.589Z,99495.75
2023-01-29T15:42:44.669Z,99502.41
2023-01-29T15:45:23.264Z,99500.03
2023-01-29T15:47:52.177Z,99498.72
2023-01-29T15:50:20.571Z,99505.91
2023-01-29T15:52:52.217Z,99506.72
2023-01-29T15:55:24.898Z,99510.19
2023-01-29T15:57:53.332Z,99516.09
2023-01-29T16:00:26.281Z,99518.75
2023-01-29T16:02:54.834Z,99523.03
2023-01-29T16:05:27.792Z,99521.94
2023-01-29T16:07:58.812Z,99523.59
2023-01-29T16:10:31.053Z,99527.31
2023-01-29T16:13:00.109Z,99522.47
2023-01-29T16:15:36.714Z,99523.00
2023-01-29T16:18:20.518Z,99529.13
2023-01-29T16:20:52.975Z,99533.44
2023-01-29T16:23:25.703Z,99525.41
2023-01-29T16:25:56.938Z,99523.78
2023-01-29T16:28:25.295Z,99526.47
2023-01-29T16:30:58.663Z,99525.63
2023-01-29T16:33:34.818Z,99529.88
2023-01-29T16:36:05.835Z,99533.63
2023-01-29T16:38:36.768Z,99537.84
2023-01-29T16:41:16.814Z,99534.91
2023-01-29T16:43:53.309Z,99542.13
2023-01-29T16:46:26.445Z,99545.59
2023-01-29T16:48:55.030Z,99541.00
2023-01-29T16:51:27.036Z,99550.56
2023-01-29T16:54:00.476Z,99541.41
2023-01-29T16:56:33.730Z,99544.59
2023-01-29T16:59:05.607Z,99534.94
2023-01-29T17:01:36.176Z,99537.94
2023-01-29T17:04:10.124Z,99541.13
2023-01-29T17:06:39.943Z,99535.56
2023-01-29T17:09:08.646Z,99527.25
2023-01-29T17:11:41.850Z,99525.06
2023-01-29T17:14:11.383Z,99533.34
2023-01-29T17:16:51.245Z,99528.00
2023-01-29T17:19:23.743Z,99529.38
2023-01-29T17:21:54.753Z,99532.28
2023-01-29T17:24:22.844Z,99529.09
2023-01-29T17:26:53.026Z,99524.22
2023-01-29T17:29:24.859Z,99515.69
2023-01-29T17:31:53.118Z,99514.06
2023-01-29T17:34:21.246Z,99509.78
2023-01-29T17:36:49.496Z,99503.38
2023-01-29T17:39:19.799Z,99510.59
2023-01-29T17:41:50.935Z,99507.13
2023-01-29T17:44:20.921Z,99507.13
2023-01-29T17:46:49.815Z,99507.41
2023-01-29T17:49:24.861Z,99506.63
2023-01-29T17:51:53.236Z,99497.84
2023-01-29T17:54:22.067Z,99494.38
2023-01-29T17:56:51.782Z,99502.88
2023-01-29T17:59:23.038Z,99502.88
2023-01-29T18:01:52.473Z,99497.53
2023-01-29T18:04:20.866Z,99500.47
2023-01-29T18:06:50.844Z,99496.44
2023-01-29T18:09:21.530Z,99493.53
2023-01-29T18:11:50.713Z,99495.38
2023-01-29T18:14:19.284Z,99493.53
2023-01-29T18:16:48.814Z,99489.00
2023-01-29T18:19:21.735Z,99500.72
2023-01-29T18:21:50.326Z,99494.84
2023-01-29T18:24:20.453Z,99495.59
2023-01-29T18:26:48.783Z,99500.34
2023-01-29T18:29:16.892Z,99505.38
2023-01-29T18:31:44.995Z,99503.00
2023-01-29T18:34:14.506Z,99501.63
2023-01-29T18:36:46.693Z,99505.03
2023-01-29T18:39:15.042Z,99502.03
2023-01-29T18:41:43.329Z,99504.56
2023-01-29T18:44:11.877Z,99503.34
2023-01-29T18:46:40.008Z,99516.06
2023-01-29T18:49:08.114Z,99507.22
2023-01-29T18:51:37.605Z,99502.31
2023-01-29T18:54:06.027Z,99509.72
2023-01-29T18:56:34.234Z,99501.38
2023-01-29T18:59:03.120Z,99512.13
2023-01-29T19:01:32.553Z,99514.78
2023-01-29T19:04:01.839Z,99521.16
2023-01-29T19:06:30.330Z,99519.06
2023-01-29T19:08:59.851Z,99524.44
2023-01-29T19:11:28.057Z,99519.59
2023-01-29T19:13:56.103Z,99534.50
2023-01-29T19:16:24.706Z,99531.56
2023-01-29T19:18:56.043Z,99545.16
2023-01-29T19:21:24.660Z,99544.66
2023-01-29T19:23:52.825Z,99544.09
2023-01-29T19:26:22.329Z,99539.56
2023-01-29T19:28:51.093Z,99540.94
2023-01-29T19:31:19.207Z,99551.09
2023-01-29T19:33:47.360Z,99548.50
2023-01-29T19:36:15.439Z,99544.78
2023-01-29T19:38:43.566Z,99550.34
2023-01-29T19:41:12.102Z,99549.28
2023-01-29T19:43:43.052Z,99542.13
2023-01-29T19:46:11.587Z,99549.00
2023-01-29T19:48:39.638Z,99551.44
2023-01-29T19:51:09.621Z,99556.50
2023-01-29T19:53:38.429Z,99557.56
2023-01-29T19:56:08.311Z,99558.28
2023-01-29T19:58:37.115Z,99549.50
2023-01-29T20:01:08.372Z,99553.72
2023-01-29T20:03:38.056Z,99550.97
2023-01-29T20:06:07.498Z,99554.69
2023-01-29T20:08:36.473Z,99550.41
2023-01-29T20:11:05.667Z,99550.91
2023-01-29T20:13:34.276Z,99550.91
2023-01-29T20:16:03.998Z,99552.50
2023-01-29T20:18:34.040Z,99553.09
2023-01-29T20:21:08.031Z,99553.88
2023-01-29T20:23:38.723Z,99557.63
2023-01-29T20:26:07.482Z,99558.09
2023-01-29T20:28:36.275Z,99559.97
2023-01-29T20:31:05.262Z,99558.59
2023-01-29T20:33:37.031Z,99562.72
2023-01-29T20:36:09.183Z,99562.19
2023-01-29T20:38:37.325Z,99560.56
2023-01-29T20:41:06.756Z,99561.84
2023-01-29T20:43:35.469Z,99560.75
2023-01-29T20:46:04.083Z,99563.34
2023-01-29T20:48:33.221Z,99553.66
2023-01-29T20:51:09.410Z,99561.56
2023-01-29T20:53:38.537Z,99554.66
2023-01-29T20:56:07.570Z,99551.19
2023-01-29T20:58:35.849Z,99562.63
2023-01-29T21:01:08.798Z,99559.41
2023-01-29T21:03:36.881Z,99541.56
2023-01-29T21:06:07.359Z,99549.97
2023-01-29T21:08:36.333Z,99549.44
2023-01-29T21:11:05.464Z,99550.44
2023-01-29T21:13:33.752Z,99540.56
2023-01-29T21:16:02.319Z,99539.19
2023-01-29T21:18:30.872Z,99539.41
2023-01-29T21:20:59.059Z,99538.63
2023-01-29T21:23:28.595Z,99543.63
2023-01-29T21:26:02.523Z,99536.94
2023-01-29T21:28:30.579Z,99538.78
2023-01-29T21:31:04.565Z,99523.84
2023-01-29T21:33:34.115Z,99519.59
2023-01-29T21:36:02.585Z,99517.41
2023-01-29T21:38:32.124Z,99524.03
2023-01-29T21:41:01.635Z,99522.97
2023-01-29T21:43:28.953Z,99515.81
2023-01-29T21:45:58.484Z,99513.38
2023-01-29T21:48:27.143Z,99506.94
2023-01-29T21:50:55.142Z,99505.31
2023-01-29T21:53:23.470Z,99504.44
2023-01-29T21:55:53.096Z,99504.44
2023-01-29T21:58:21.209Z,99490.09
2023-01-29T22:00:49.782Z,99492.19
2023-01-29T22:03:18.062Z,99497.25
2023-01-29T22:05:46.217Z,99499.09
2023-01-29T22:08:14.890Z,99482.59
2023-01-29T22:10:43.147Z,99487.84
2023-01-29T22:13:12.731Z,99476.84
2023-01-29T22:15:40.806Z,99473.06
2023-01-29T22:18:11.098Z,99469.03
2023-01-29T22:20:39.109Z,99482.03
2023-01-29T22:23:07.107Z,99468.47
2023-01-29T22:25:35.860Z,99477.50
2023-01-29T22:28:03.936Z,99482.53
2023-01-29T22:30:36.486Z,99478.97
2023-01-29T22:33:04.730Z,99481.38
2023-01-29T22:35:32.809Z,99472.59
2023-01-29T22:38:01.163Z,99482.75
2023-01-29T22:40:29.393Z,99480.34
2023-01-29T22:42:57.515Z,99472.59
2023-01-29T22:45:25.771Z,99477.91
2023-01-29T22:47:55.380Z,99477.91
2023-01-29T22:50:23.586Z,99483.22
2023-01-29T22:52:53.920Z,99477.91
2023-01-29T22:55:22.526Z,99481.16
2023-01-29T22:57:50.951Z,99477.69
2023-01-29T23:00:20.315Z,99483.81
2023-01-29T23:02:48.555Z,99483.00
2023-01-29T23:05:18.814Z,99477.13
2023-01-29T23:07:46.944Z,99476.06
2023-01-29T23:10:16.510Z,99468.88
2023-01-29T23:12:44.880Z,99469.38
2023-01-29T23:15:13.056Z,99465.81
2023-01-29T23:17:41.190Z,99454.38
2023-01-29T23:20:10.459Z,99462.63
2023-01-29T23:22:39.996Z,99469.22
2023-01-29T23:25:09.013Z,99469.22
2023-01-29T23:27:36.247Z,99464.38
2023-01-29T23:30:05.670Z,99465.97
2023-01-29T23:32:34.280Z,99469.22
2023-01-29T23:35:02.419Z,99464.13
2023-01-29T23:37:30.474Z,99466.78
2023-01-29T23:39:59.961Z,99465.19
2023-01-29T23:42:28.101Z,99464.91
2023-01-29T23:44:56.144Z,99466.78
2023-01-29T23:47:24.177Z,99469.94
2023-01-29T23:49:53.204Z,99472.91
2023-01-29T23:52:21.296Z,99480.66
2023-01-29T23:54:49.373Z,99479.84
2023-01-29T23:57:18.866Z,99481.94
2023-01-29T23:59:47.026Z,99491.19
